ADT,Max TemperatureF,Mean TemperatureF,Min TemperatureF,Max Dew PointF,MeanDew PointF,Min DewpointF,Max Humidity, Mean Humidity, Min Humidity, Max Sea Level PressureIn, Mean Sea Level PressureIn, Min Sea Level PressureIn, Max VisibilityMiles, Mean VisibilityMiles, Min VisibilityMiles, Max Wind SpeedMPH, Mean Wind SpeedMPH, Max Gust SpeedMPH,PrecipitationIn, CloudCover, Events, WindDirDegrees
2013-9-1,71,66,60,66,63,59,100,93,83,30.00,29.87,29.83,15,11,3,13,9,18,0.08,8,Rain,177
2013-9-2,64,62,59,61,58,55,100,88,72,30.13,30.08,30.00,15,11,5,20,12,23,0.00,8,Rain,51
2013-9-3,69,64,60,68,65,59,100,97,94,30.03,29.85,29.76,15,10,2,24,15,37,0.94,8,Rain,142
2013-9-4,72,68,64,68,65,61,100,91,78,29.77,29.73,29.67,15,14,10,16,11,24,0.00,7,Rain,204
2013-9-5,57,50,44,61,49,44,100,78,55,30.00,29.90,29.78,15,15,12,13,7,21,0.02,6,Fog-Rain,293
2013-9-6,60,52,44,48,43,39,100,69,39,30.09,30.03,29.99,15,15,12,17,8,25,0.00,3,Rain,248
2013-9-7,70,61,52,54,50,48,94,66,40,29.99,29.87,29.76,15,15,15,22,12,34,0.02,4,,218
2013-9-8,61,56,48,59,55,45,100,90,63,29.75,29.62,29.50,15,10,2,25,12,43,0.51,8,Rain,235
2013-9-9,62,54,45,45,42,36,87,66,33,30.07,29.96,29.73,15,15,15,20,12,28,0.00,2,,252
2013-9-10,64,58,53,57,54,46,88,82,70,30.17,30.11,30.06,15,15,15,17,12,24,0.00,5,Rain,223
2013-9-11,72,66,59,66,62,55,100,91,75,30.16,30.03,29.88,15,14,6,18,10,22,0.08,8,Rain,185
2013-9-12,75,70,65,68,66,63,100,88,73,29.92,29.86,29.77,15,11,1,17,10,26,0.28,7,Rain-Thunderstorm,213
2013-9-13,69,67,65,68,67,63,100,96,87,29.76,29.71,29.64,15,8,2,21,14,25,1.34,7,Rain,163
2013-9-14,72,67,60,68,65,59,100,93,83,29.87,29.77,29.62,15,12,3,12,9,20,0.01,7,Fog-Rain,182
2013-9-15,65,59,53,59,53,48,94,80,57,30.00,29.95,29.88,15,15,15,14,9,20,0.00,4,,250
2013-9-16,64,56,49,55,52,43,100,87,68,30.03,29.95,29.92,15,14,8,13,8,20,0.12,7,Rain,284
2013-9-17,58,50,43,45,40,36,87,66,36,30.22,30.16,30.04,15,15,15,15,8,24,0.00,4,,297
2013-9-18,66,56,47,52,47,42,88,69,38,30.18,30.08,29.98,15,15,15,15,9,22,0.00,2,,240
2013-9-19,71,59,47,54,50,46,94,70,34,30.00,29.97,29.93,15,15,15,10,7,18,0.00,3,,252
2013-9-20,58,52,46,54,49,41,94,83,69,30.20,30.09,29.94,15,15,15,17,9,22,0.00,6,,34
2013-9-21,68,56,44,59,54,43,94,81,62,30.18,30.05,29.94,15,15,15,21,12,29,0.00,6,,162
2013-9-22,75,67,59,64,61,57,94,81,58,29.93,29.83,29.67,15,15,15,25,17,33,0.20,5,,175
2013-9-23,64,57,50,64,57,45,100,89,72,29.65,29.60,29.56,15,12,3,18,13,24,0.55,7,Rain,231
2013-9-24,54,50,46,48,45,43,100,82,60,29.74,29.69,29.63,15,14,6,13,9,,0.01,7,,223
2013-9-25,57,52,48,52,49,46,100,90,72,29.76,29.73,29.71,15,13,2,14,4,17,0.12,7,Rain,8
2013-9-26,55,53,51,54,52,50,100,95,82,29.99,29.84,29.75,15,7,2,23,13,32,0.16,8,Rain,4
2013-9-27,57,50,44,50,48,43,94,84,55,30.22,30.11,29.99,15,15,15,20,14,31,0.00,6,Rain,3
2013-9-28,70,54,38,50,47,41,100,78,39,30.29,30.24,30.22,15,14,0,10,5,,0.00,1,Fog,268
2013-9-29,72,62,53,57,51,45,88,69,51,30.21,30.15,30.11,15,15,15,14,9,20,0.00,1,,237
2013-9-30,67,58,50,54,50,46,94,75,37,30.13,30.08,30.03,15,15,15,10,7,,0.00,4,,195